createdAt,value
2023-04-03T00:02:15.469Z,1.10
2023-04-03T00:05:12.315Z,1.09
2023-04-03T00:08:10.507Z,1.04
2023-04-03T00:11:08.666Z,0.93
2023-04-03T00:14:05.500Z,0.99
2023-04-03T00:17:02.325Z,0.92
2023-04-03T00:19:59.276Z,0.90
2023-04-03T00:22:56.427Z,0.93
2023-04-03T00:25:54.307Z,0.88
2023-04-03T00:28:51.145Z,0.87
2023-04-03T00:31:47.929Z,0.92
2023-04-03T00:34:45.352Z,1.11
2023-04-03T00:37:42.935Z,0.92
2023-04-03T00:40:44.928Z,0.85
2023-04-03T00:43:41.920Z,0.92
2023-04-03T00:46:38.776Z,0.78
2023-04-03T00:49:38.047Z,0.75
2023-04-03T00:52:34.980Z,0.82
2023-04-03T00:55:32.738Z,0.61
2023-04-03T00:58:40.069Z,0.77
2023-04-03T01:01:38.218Z,0.59
2023-04-03T01:04:39.474Z,0.82
2023-04-03T01:07:37.985Z,0.72
2023-04-03T01:10:35.155Z,0.57
2023-04-03T01:13:34.298Z,0.61
2023-04-03T01:16:32.765Z,0.60
2023-04-03T01:19:30.538Z,0.65
2023-04-03T01:22:59.774Z,0.76
2023-04-03T01:25:58.284Z,0.44
2023-04-03T01:28:56.519Z,0.49
2023-04-03T01:31:59.644Z,0.43
2023-04-03T01:34:56.483Z,0.45
2023-04-03T01:37:53.411Z,0.29
2023-04-03T01:40:50.236Z,0.31
2023-04-03T01:43:47.147Z,0.38
2023-04-03T01:46:44.055Z,0.28
2023-04-03T01:49:41.081Z,0.32
2023-04-03T01:52:37.888Z,0.30
2023-04-03T01:55:34.783Z,0.32
2023-04-03T01:58:31.674Z,0.44
2023-04-03T02:01:28.615Z,0.14
2023-04-03T02:04:25.737Z,0.27
2023-04-03T02:07:22.624Z,0.26
2023-04-03T02:10:19.598Z,0.30
2023-04-03T02:13:17.962Z,0.35
2023-04-03T02:16:14.901Z,0.21
2023-04-03T02:19:11.850Z,0.32
2023-04-03T02:22:08.643Z,0.25
2023-04-03T02:25:06.096Z,0.31
2023-04-03T02:28:02.937Z,0.33
2023-04-03T02:30:59.881Z,0.30
2023-04-03T02:33:56.804Z,0.23
2023-04-03T02:36:53.593Z,0.23
2023-04-03T02:39:50.668Z,0.13
2023-04-03T02:42:47.497Z,0.12
2023-04-03T02:45:44.745Z,0.17
2023-04-03T02:48:41.606Z,0.11
2023-04-03T02:51:38.436Z,-0.01
2023-04-03T02:54:35.366Z,0.04
2023-04-03T02:57:32.205Z,0.09
2023-04-03T03:00:29.225Z,-0.16
2023-04-03T03:03:26.029Z,-0.10
2023-04-03T03:06:22.832Z,-0.08
2023-04-03T03:09:19.793Z,-0.11
2023-04-03T03:12:16.776Z,-0.24
2023-04-03T03:15:13.877Z,-0.26
2023-04-03T03:18:10.770Z,-0.06
2023-04-03T03:21:07.615Z,0.06
2023-04-03T03:24:04.596Z,-0.07
2023-04-03T03:27:01.429Z,-0.21
2023-04-03T03:29:58.264Z,-0.16
2023-04-03T03:32:55.344Z,-0.18
2023-04-03T03:35:54.193Z,-0.26
2023-04-03T03:38:51.157Z,-0.29
2023-04-03T03:41:48.406Z,-0.35
2023-04-03T03:44:45.318Z,-0.22
2023-04-03T03:47:42.249Z,-0.47
2023-04-03T03:50:39.152Z,-0.33
2023-04-03T03:53:36.096Z,-0.44
2023-04-03T03:56:33.131Z,-0.44
2023-04-03T03:59:29.987Z,-0.40
2023-04-03T04:02:27.081Z,-0.39
2023-04-03T04:05:24.146Z,-0.47
2023-04-03T04:08:21.049Z,-0.41
2023-04-03T04:11:17.990Z,-0.47
2023-04-03T04:14:15.002Z,-0.47
2023-04-03T04:17:11.848Z,-0.42
2023-04-03T04:20:09.600Z,-0.58
2023-04-03T04:23:06.401Z,-0.63
2023-04-03T04:26:03.339Z,-0.63
2023-04-03T04:29:00.249Z,-0.62
2023-04-03T04:31:57.070Z,-0.55
2023-04-03T04:34:53.912Z,-0.65
2023-04-03T04:37:51.061Z,-0.66
2023-04-03T04:40:49.548Z,-0.78
2023-04-03T04:43:46.365Z,-0.66
2023-04-03T04:46:43.290Z,-0.83
2023-04-03T04:49:40.217Z,-0.84
2023-04-03T04:52:37.234Z,-0.74
2023-04-03T04:55:34.100Z,-0.90
2023-04-03T04:58:30.996Z,-0.74
2023-04-03T05:01:27.831Z,-0.80
2023-04-03T05:04:24.795Z,-1.17
2023-04-03T05:07:21.693Z,-0.94
2023-04-03T05:10:18.636Z,-0.99
2023-04-03T05:13:15.769Z,-1.02
2023-04-03T05:16:12.739Z,-0.94
2023-04-03T05:19:09.813Z,-0.87
2023-04-03T05:22:07.044Z,-1.08
2023-04-03T05:25:04.714Z,-1.11
2023-04-03T05:28:01.576Z,-0.95
2023-04-03T05:30:59.857Z,-1.01
2023-04-03T05:33:57.133Z,-0.99
2023-04-03T05:36:54.138Z,-1.09
2023-04-03T05:39:51.335Z,-1.23
2023-04-03T05:42:48.255Z,-1.04
2023-04-03T05:45:46.848Z,-1.13
2023-04-03T05:48:45.420Z,-0.98
2023-04-03T05:51:42.444Z,-1.16
2023-04-03T05:54:39.779Z,-1.16
2023-04-03T05:57:36.906Z,-0.98
2023-04-03T06:00:33.996Z,-0.91
2023-04-03T06:03:31.240Z,-0.87
2023-04-03T06:06:48.888Z,-1.19
2023-04-03T06:09:45.904Z,-1.06
2023-04-03T06:12:42.758Z,-1.10
2023-04-03T06:15:40.851Z,-1.09
2023-04-03T06:18:37.685Z,-1.15
2023-04-03T06:21:34.577Z,-1.30
2023-04-03T06:24:32.603Z,-1.04
2023-04-03T06:27:29.561Z,-1.10
2023-04-03T06:30:26.612Z,-1.29
2023-04-03T06:33:23.459Z,-1.20
2023-04-03T06:36:22.104Z,-1.06
2023-04-03T06:39:23.472Z,-1.18
2023-04-03T06:42:20.295Z,-1.18
2023-04-03T06:45:17.545Z,-1.20
2023-04-03T06:48:14.473Z,-1.05
2023-04-03T06:51:21.650Z,-1.06
2023-04-03T06:54:19.254Z,-1.22
2023-04-03T06:57:16.270Z,-0.96
2023-04-03T07:00:14.214Z,-0.87
2023-04-03T07:03:11.050Z,-0.96
2023-04-03T07:06:11.701Z,-0.95
2023-04-03T07:09:08.704Z,-0.72
2023-04-03T07:12:05.604Z,-0.53
2023-04-03T07:15:02.524Z,-0.66
2023-04-03T07:17:59.412Z,-0.71
2023-04-03T07:20:56.797Z,-0.25
2023-04-03T07:23:53.683Z,-0.08
2023-04-03T07:26:52.485Z,-0.34
2023-04-03T07:29:49.581Z,-0.51
2023-04-03T07:32:46.887Z,-0.55
2023-04-03T07:35:44.906Z,-0.69
2023-04-03T07:38:41.747Z,-0.92
2023-04-03T07:41:38.602Z,-0.50
2023-04-03T07:44:36.457Z,-0.42
2023-04-03T07:47:33.302Z,-0.18
2023-04-03T07:50:31.458Z,-0.21
2023-04-03T07:53:28.863Z,0.42
2023-04-03T07:56:26.199Z,0.92
2023-04-03T07:59:23.028Z,1.19
2023-04-03T08:02:19.827Z,1.97
2023-04-03T08:05:17.873Z,4.51
2023-04-03T08:08:20.893Z,6.53
2023-04-03T08:11:19.673Z,5.12
2023-04-03T08:14:18.822Z,5.64
2023-04-03T08:17:15.868Z,5.17
2023-04-03T08:20:12.932Z,4.03
2023-04-03T08:23:10.534Z,4.13
2023-04-03T08:26:14.888Z,3.23
2023-04-03T08:29:11.816Z,3.52
2023-04-03T08:32:08.712Z,3.23
2023-04-03T08:35:06.815Z,2.77
2023-04-03T08:38:03.739Z,2.54
2023-04-03T08:41:32.776Z,4.37
2023-04-03T08:44:53.107Z,5.36
2023-04-03T08:48:18.111Z,6.47
2023-04-03T08:51:19.692Z,6.14
2023-04-03T08:54:32.985Z,7.05
2023-04-03T08:57:40.640Z,6.33
2023-04-03T09:01:04.983Z,5.08
2023-04-03T09:04:17.088Z,4.05
2023-04-03T09:07:34.162Z,1.50
2023-04-03T09:10:36.255Z,1.77
2023-04-03T09:13:51.709Z,3.04
2023-04-03T09:17:11.315Z,4.74
2023-04-03T09:20:20.711Z,3.44
2023-04-03T09:23:33.586Z,3.93
2023-04-03T09:26:37.117Z,3.22
2023-04-03T09:29:40.467Z,5.13
2023-04-03T09:32:37.789Z,5.06
2023-04-03T09:35:48.105Z,5.39
2023-04-03T09:38:46.610Z,5.01
2023-04-03T09:42:00.941Z,4.15
2023-04-03T09:45:04.567Z,4.20
2023-04-03T09:48:16.149Z,5.00
2023-04-03T09:51:16.874Z,5.22
2023-04-03T09:54:39.537Z,5.45
2023-04-03T09:57:36.533Z,6.00
2023-04-03T10:00:39.569Z,6.01
2023-04-03T10:03:37.584Z,5.34
2023-04-03T10:06:41.657Z,5.02
2023-04-03T10:09:42.186Z,5.82
2023-04-03T10:12:38.987Z,6.39
2023-04-03T10:15:45.904Z,6.57
2023-04-03T10:19:08.146Z,6.15
2023-04-03T10:22:19.665Z,5.56
2023-04-03T10:25:31.698Z,6.55
2023-04-03T10:28:47.657Z,6.74
2023-04-03T10:32:13.814Z,6.50
2023-04-03T10:35:39.566Z,6.08
2023-04-03T10:38:58.530Z,6.01
2023-04-03T10:42:17.701Z,5.42
2023-04-03T10:45:48.511Z,4.20
2023-04-03T10:49:03.574Z,7.23
2023-04-03T10:52:23.248Z,6.81
2023-04-03T10:55:43.890Z,7.25
2023-04-03T10:58:46.304Z,7.55
2023-04-03T11:01:49.022Z,7.02
2023-04-03T11:04:53.195Z,8.42
2023-04-03T11:07:54.311Z,7.11
2023-04-03T11:10:52.996Z,5.92
2023-04-03T11:13:53.823Z,7.09
2023-04-03T11:17:11.521Z,8.04
2023-04-03T11:20:28.625Z,8.38
2023-04-03T11:23:48.150Z,8.99
2023-04-03T11:26:46.387Z,7.18
2023-04-03T11:29:46.895Z,7.73
2023-04-03T11:32:53.909Z,8.11
2023-04-03T11:35:56.698Z,8.32
2023-04-03T11:38:59.890Z,7.94
2023-04-03T11:42:13.635Z,8.60
2023-04-03T11:45:36.486Z,7.53
2023-04-03T11:48:36.872Z,6.04
2023-04-03T11:51:42.541Z,7.59
2023-04-03T11:54:44.786Z,7.05
2023-04-03T11:58:04.945Z,8.95
2023-04-03T12:01:08.522Z,7.65
2023-04-03T12:04:14.950Z,9.20
2023-04-03T12:07:20.836Z,8.61
2023-04-03T12:10:30.797Z,7.12
2023-04-03T12:13:31.310Z,8.15
2023-04-03T12:16:33.379Z,7.38
2023-04-03T12:19:44.288Z,8.69
2023-04-03T12:23:01.314Z,9.51
2023-04-03T12:26:20.641Z,6.69
2023-04-03T12:29:33.966Z,6.76
2023-04-03T12:33:12.989Z,7.59
2023-04-03T12:36:23.673Z,7.86
2023-04-03T12:39:45.120Z,6.72
2023-04-03T12:43:19.903Z,6.72
2023-04-03T12:46:43.343Z,7.44
2023-04-03T12:49:43.745Z,8.23
2023-04-03T12:52:46.994Z,7.56
2023-04-03T12:55:44.157Z,8.05
2023-04-03T12:58:41.100Z,8.31
2023-04-03T13:01:38.023Z,10.21
2023-04-03T13:04:35.073Z,7.72
2023-04-03T13:07:38.936Z,6.86
2023-04-03T13:11:07.185Z,7.96
2023-04-03T13:14:15.852Z,9.15
2023-04-03T13:17:17.380Z,9.12
2023-04-03T13:20:24.432Z,6.75
2023-04-03T13:23:22.105Z,5.93
2023-04-03T13:26:22.675Z,5.00
2023-04-03T13:29:37.007Z,9.04
2023-04-03T13:32:34.025Z,7.56
2023-04-03T13:35:41.525Z,7.48
2023-04-03T13:38:38.472Z,7.71
2023-04-03T13:41:39.121Z,6.19
2023-04-03T13:44:40.447Z,5.52
2023-04-03T13:47:44.493Z,7.09
2023-04-03T13:51:05.406Z,7.49
2023-04-03T13:54:12.011Z,7.06
2023-04-03T13:57:16.737Z,7.25
2023-04-03T14:00:31.398Z,6.11
2023-04-03T14:03:47.076Z,5.98
2023-04-03T14:06:44.798Z,4.52
2023-04-03T14:09:41.673Z,5.08
2023-04-03T14:12:42.400Z,6.99
2023-04-03T14:15:39.548Z,6.67
2023-04-03T14:18:38.214Z,4.61
2023-04-03T14:21:35.066Z,6.86
2023-04-03T14:24:31.882Z,4.45
2023-04-03T14:27:38.789Z,3.93
2023-04-03T14:30:36.556Z,5.62
2023-04-03T14:33:35.814Z,6.12
2023-04-03T14:36:33.852Z,6.77
2023-04-03T14:39:31.282Z,4.70
2023-04-03T14:42:33.117Z,4.73
2023-04-03T14:45:30.076Z,4.12
2023-04-03T14:48:30.484Z,4.68
2023-04-03T14:51:27.452Z,6.27
2023-04-03T14:54:29.083Z,7.00
2023-04-03T14:57:31.031Z,5.63
2023-04-03T15:00:28.487Z,4.12
2023-04-03T15:03:25.721Z,3.51
2023-04-03T15:06:23.240Z,3.49
2023-04-03T15:09:26.610Z,4.05
2023-04-03T15:12:25.879Z,5.22
2023-04-03T15:15:24.828Z,6.94
2023-04-03T15:18:27.921Z,4.45
2023-04-03T15:21:25.980Z,3.52
2023-04-03T15:24:22.874Z,3.06
2023-04-03T15:27:20.029Z,2.71
2023-04-03T15:30:19.738Z,3.52
2023-04-03T15:33:16.738Z,4.82
2023-04-03T15:36:29.121Z,4.85
2023-04-03T15:39:30.846Z,4.67
2023-04-03T15:42:27.678Z,4.20
2023-04-03T15:45:24.766Z,4.39
2023-04-03T15:48:21.594Z,3.00
2023-04-03T15:51:18.568Z,2.72
2023-04-03T15:54:16.641Z,2.49
2023-04-03T15:57:13.773Z,2.76
2023-04-03T16:00:11.650Z,3.77
2023-04-03T16:03:18.003Z,3.80
2023-04-03T16:06:19.822Z,3.57
2023-04-03T16:09:16.892Z,3.96
2023-04-03T16:12:13.766Z,3.90
2023-04-03T16:15:11.512Z,3.30
2023-04-03T16:18:10.861Z,3.66
2023-04-03T16:21:10.123Z,3.38
2023-04-03T16:24:07.520Z,3.04
2023-04-03T16:27:04.640Z,2.61
2023-04-03T16:30:01.479Z,2.28
2023-04-03T16:32:58.624Z,2.20
2023-04-03T16:35:55.681Z,2.15
2023-04-03T16:38:52.722Z,2.25
2023-04-03T16:41:49.574Z,2.35
2023-04-03T16:44:46.466Z,2.31
2023-04-03T16:47:43.461Z,2.36
2023-04-03T16:50:40.433Z,2.16
2023-04-03T16:53:37.355Z,1.88
2023-04-03T16:56:34.305Z,2.05
2023-04-03T16:59:31.214Z,2.31
2023-04-03T17:02:28.602Z,2.11
2023-04-03T17:05:25.576Z,1.68
2023-04-03T17:08:22.382Z,1.66
2023-04-03T17:11:20.015Z,1.61
2023-04-03T17:14:17.026Z,1.75
2023-04-03T17:17:15.857Z,1.69
2023-04-03T17:20:13.234Z,1.62
2023-04-03T17:23:10.100Z,1.34
2023-04-03T17:26:07.036Z,1.31
2023-04-03T17:29:04.961Z,1.23
2023-04-03T17:32:02.133Z,1.07
2023-04-03T17:34:59.011Z,1.00
2023-04-03T17:37:56.249Z,0.90
2023-04-03T17:40:57.600Z,0.96
2023-04-03T17:43:56.955Z,1.00
2023-04-03T17:46:53.821Z,1.04
2023-04-03T17:49:51.593Z,1.08
2023-04-03T17:52:48.404Z,1.23
2023-04-03T17:55:45.358Z,1.01
2023-04-03T17:58:42.964Z,0.83
2023-04-03T18:01:40.368Z,0.79
2023-04-03T18:04:37.400Z,0.82
2023-04-03T18:07:34.373Z,0.91
2023-04-03T18:10:31.322Z,0.94
2023-04-03T18:13:28.253Z,0.79
2023-04-03T18:16:25.406Z,0.63
2023-04-03T18:19:23.854Z,0.89
2023-04-03T18:22:24.108Z,0.70
2023-04-03T18:25:21.226Z,0.91
2023-04-03T18:28:18.341Z,0.79
2023-04-03T18:31:17.263Z,0.84
2023-04-03T18:34:14.112Z,0.65
2023-04-03T18:37:11.244Z,0.53
2023-04-03T18:40:09.022Z,0.76
2023-04-03T18:43:06.492Z,0.61
2023-04-03T18:46:05.363Z,0.59
2023-04-03T18:49:02.874Z,0.50
2023-04-03T18:51:59.873Z,0.47
2023-04-03T18:54:56.943Z,0.53
2023-04-03T18:57:53.807Z,0.64
2023-04-03T19:00:51.000Z,0.77
2023-04-03T19:03:48.215Z,0.70
2023-04-03T19:06:45.102Z,0.46
2023-04-03T19:09:42.071Z,0.46
2023-04-03T19:12:38.882Z,0.54
2023-04-03T19:15:35.871Z,0.40
2023-04-03T19:18:32.963Z,0.49
2023-04-03T19:21:30.229Z,0.28
2023-04-03T19:24:27.157Z,0.27
2023-04-03T19:27:24.026Z,0.23
2023-04-03T19:30:21.062Z,0.20
2023-04-03T19:33:17.894Z,0.24
2023-04-03T19:36:15.792Z,0.15
2023-04-03T19:39:14.811Z,0.36
2023-04-03T19:42:13.069Z,0.15
2023-04-03T19:45:12.680Z,0.16
2023-04-03T19:48:10.210Z,0.12
2023-04-03T19:51:08.278Z,0.17
2023-04-03T19:54:06.014Z,0.23
2023-04-03T19:57:02.989Z,0.25
2023-04-03T19:59:59.929Z,0.22
2023-04-03T20:02:57.385Z,0.32
2023-04-03T20:05:55.049Z,0.03
2023-04-03T20:08:53.579Z,0.30
2023-04-03T20:11:51.476Z,0.27
2023-04-03T20:14:49.461Z,0.24
2023-04-03T20:17:46.381Z,0.08
2023-04-03T20:20:57.297Z,-0.12
2023-04-03T20:23:54.134Z,0.02
2023-04-03T20:26:50.956Z,-0.10
2023-04-03T20:29:47.882Z,-0.14
2023-04-03T20:32:44.878Z,-0.11
2023-04-03T20:35:41.723Z,-0.04
2023-04-03T20:38:38.672Z,-0.24
2023-04-03T20:41:37.633Z,-0.17
2023-04-03T20:44:34.495Z,-0.37
2023-04-03T20:47:31.608Z,-0.29
2023-04-03T20:50:28.983Z,-0.26
2023-04-03T20:53:27.185Z,-0.27
2023-04-03T20:56:24.347Z,-0.29
2023-04-03T20:59:22.528Z,-0.11
2023-04-03T21:02:20.655Z,-0.36
2023-04-03T21:05:17.690Z,-0.43
2023-04-03T21:09:11.100Z,-0.35
2023-04-03T21:13:04.471Z,-0.19
2023-04-03T21:16:02.212Z,-0.36
2023-04-03T21:19:15.881Z,-0.25
2023-04-03T21:22:13.789Z,-0.46
2023-04-03T21:25:10.779Z,-0.40
2023-04-03T21:28:07.680Z,-0.36
2023-04-03T21:31:04.614Z,-0.45
2023-04-03T21:34:01.652Z,-0.23
2023-04-03T21:37:04.618Z,-0.32
2023-04-03T21:40:01.652Z,-0.49
2023-04-03T21:42:58.554Z,-0.30
2023-04-03T21:45:57.482Z,-0.36
2023-04-03T21:48:55.907Z,-0.36
2023-04-03T21:51:52.830Z,-0.16
2023-04-03T21:54:49.656Z,-0.32
2023-04-03T21:57:53.692Z,-0.34
2023-04-03T22:00:51.056Z,-0.32
2023-04-03T22:03:48.070Z,-0.44
2023-04-03T22:06:45.697Z,-0.36
2023-04-03T22:09:42.595Z,-0.53
2023-04-03T22:12:39.461Z,-0.43
2023-04-03T22:15:47.268Z,-0.44
2023-04-03T22:18:44.199Z,-0.47
2023-04-03T22:21:42.567Z,-0.63
2023-04-03T22:24:40.112Z,-0.85
2023-04-03T22:27:37.000Z,-0.85
2023-04-03T22:30:33.867Z,-0.96
2023-04-03T22:33:31.210Z,-1.04
2023-04-03T22:36:28.044Z,-1.01
2023-04-03T22:39:24.908Z,-0.93
2023-04-03T22:42:21.777Z,-1.11
2023-04-03T22:45:18.596Z,-1.15
2023-04-03T22:48:16.394Z,-1.14
2023-04-03T22:51:13.439Z,-1.17
2023-04-03T22:54:10.419Z,-1.18
2023-04-03T22:57:07.668Z,-1.28
2023-04-03T23:00:04.901Z,-1.10
2023-04-03T23:03:02.047Z,-1.46
2023-04-03T23:05:58.912Z,-1.48
2023-04-03T23:08:56.127Z,-1.40
2023-04-03T23:11:52.969Z,-1.44
2023-04-03T23:14:49.804Z,-1.43
2023-04-03T23:17:49.163Z,-1.31
2023-04-03T23:20:46.371Z,-1.59
2023-04-03T23:23:43.218Z,-1.23
2023-04-03T23:26:40.058Z,-1.15
2023-04-03T23:29:37.256Z,-1.12
2023-04-03T23:32:34.288Z,-1.45
2023-04-03T23:35:31.554Z,-1.26
2023-04-03T23:38:28.380Z,-1.29
2023-04-03T23:41:25.269Z,-1.17
2023-04-03T23:44:22.113Z,-1.13
2023-04-03T23:47:19.187Z,-1.18
2023-04-03T23:50:16.458Z,-0.95
2023-04-03T23:53:13.600Z,-0.71
2023-04-03T23:56:12.518Z,-0.73
2023-04-03T23:59:09.322Z,-0.81
